Time;durP1;ratioP1;P1;durP2;ratioP2;P2;SDS_P1;SDS_P2;PMS_P1;PMS_P2;Temp;Humidity;BMP_temperature;BMP_pressure;BME280_temperature;BME280_humidity;BME280_pressure;Samples;Min_cycle;Max_cycle;Signal;HPM_P1;HPM_P2
2021/04/08 00:00:38;;;;;;;8.80;1.50;;;2.10;89.60;;;;;;5033966;28;20120;-47
2021/04/08 00:03:04;;;;;;;11.90;2.35;;;2.10;89.30;;;;;;5032508;28;20056;-46
2021/04/08 00:05:30;;;;;;;10.60;1.90;;;2.20;89.30;;;;;;5031582;28;20049;-47
2021/04/08 00:07:55;;;;;;;7.57;1.92;;;2.10;89.20;;;;;;5028196;28;20533;-47
2021/04/08 00:10:21;;;;;;;8.70;1.25;;;2.10;89.10;;;;;;5031702;28;20041;-49
2021/04/08 00:12:47;;;;;;;9.85;1.52;;;2.20;89.20;;;;;;5030603;28;20044;-48
2021/04/08 00:15:14;;;;;;;8.00;1.40;;;2.20;89.20;;;;;;5031631;28;20045;-47
2021/04/08 00:17:40;;;;;;;8.63;1.48;;;2.20;89.10;;;;;;5030907;28;20045;-48
2021/04/08 00:20:16;;;;;;;10.43;1.35;;;2.30;88.90;;;;;;5030527;28;20113;-48
2021/04/08 00:22:42;;;;;;;7.97;1.75;;;2.40;88.90;;;;;;5030674;28;20112;-47
2021/04/08 00:25:08;;;;;;;8.82;1.73;;;2.40;88.90;;;;;;5013199;28;20124;-50
2021/04/08 00:27:34;;;;;;;4.97;1.20;;;2.40;88.90;;;;;;5030077;28;20041;-48
2021/04/08 00:30:00;;;;;;;7.38;1.20;;;2.40;88.80;;;;;;5046475;28;20497;-49
2021/04/08 00:32:25;;;;;;;8.82;1.40;;;2.40;88.90;;;;;;5030583;28;20042;-47
2021/04/08 00:34:53;;;;;;;11.73;1.60;;;2.50;89.00;;;;;;5032515;28;20050;-47
2021/04/08 00:37:18;;;;;;;9.82;1.25;;;2.40;88.90;;;;;;5033876;28;20113;-50
2021/04/08 00:39:44;;;;;;;13.05;1.67;;;2.50;88.80;;;;;;5014449;28;20041;-48
2021/04/08 00:42:10;;;;;;;13.73;1.90;;;2.50;88.60;;;;;;5018048;28;20030;-47
2021/04/08 00:44:36;;;;;;;9.23;1.17;;;2.50;88.70;;;;;;5029541;28;20049;-47
2021/04/08 00:47:01;;;;;;;7.55;1.20;;;2.50;88.80;;;;;;5032653;28;20418;-47
2021/04/08 00:49:27;;;;;;;6.65;1.10;;;2.50;89.50;;;;;;5034022;28;20418;-47
2021/04/08 00:51:53;;;;;;;5.20;1.15;;;2.50;89.00;;;;;;5034865;28;20045;-48
2021/04/08 00:54:19;;;;;;;6.72;1.40;;;2.50;88.90;;;;;;5034826;28;20470;-47
2021/04/08 00:56:45;;;;;;;7.25;1.00;;;2.50;88.80;;;;;;5033774;28;20432;-47
2021/04/08 00:59:13;;;;;;;8.98;1.13;;;2.50;88.80;;;;;;5033893;28;20030;-47
2021/04/08 01:01:39;;;;;;;7.55;1.25;;;2.50;88.20;;;;;;5034105;28;20033;-47
2021/04/08 01:04:05;;;;;;;6.30;1.23;;;2.50;88.10;;;;;;5034595;28;20049;-48
2021/04/08 01:06:31;;;;;;;5.18;1.17;;;2.50;88.00;;;;;;5033583;28;20053;-47
2021/04/08 01:08:57;;;;;;;8.25;1.35;;;2.50;88.30;;;;;;5031917;28;20485;-48
2021/04/08 01:11:23;;;;;;;4.07;0.93;;;2.40;88.30;;;;;;5034265;28;20088;-47
2021/04/08 01:13:50;;;;;;;6.47;1.30;;;2.40;88.70;;;;;;5034264;28;20045;-47
2021/04/08 01:16:31;;;;;;;7.43;1.33;;;2.40;88.60;;;;;;5034005;28;20049;-47
2021/04/08 01:19:28;;;;;;;5.00;1.30;;;2.40;88.90;;;;;;5033753;28;20099;-49
2021/04/08 01:22:44;;;;;;;8.55;1.33;;;2.40;89.20;;;;;;5033678;28;20050;-47
2021/04/08 01:25:16;;;;;;;6.63;1.23;;;2.30;88.90;;;;;;5004985;28;20038;-47
2021/04/08 01:27:57;;;;;;;4.67;1.10;;;2.30;88.80;;;;;;5001262;28;20042;-48
2021/04/08 01:30:48;;;;;;;7.40;1.13;;;2.30;89.20;;;;;;5026606;28;20060;-52
2021/04/08 01:33:18;;;;;;;7.88;1.60;;;2.30;88.80;;;;;;5024686;28;20084;-48
2021/04/08 01:35:46;;;;;;;7.43;1.30;;;2.30;88.80;;;;;;5034082;28;20052;-48
2021/04/08 01:38:31;;;;;;;9.88;1.30;;;2.30;88.60;;;;;;5033491;28;20045;-48
2021/04/08 01:40:58;;;;;;;9.23;1.55;;;2.30;88.50;;;;;;5033352;28;20092;-47
2021/04/08 01:43:32;;;;;;;6.47;1.08;;;2.30;88.60;;;;;;5033276;28;20037;-48
2021/04/08 01:45:59;;;;;;;6.82;1.08;;;2.30;88.60;;;;;;5031064;28;20038;-47
2021/04/08 01:48:27;;;;;;;5.85;1.02;;;2.30;88.40;;;;;;5024915;28;20384;-47
2021/04/08 01:50:55;;;;;;;13.25;1.35;;;2.40;88.30;;;;;;5026885;28;20112;-47
2021/04/08 01:53:22;;;;;;;4.85;1.10;;;2.40;88.40;;;;;;5030237;28;20041;-47
2021/04/08 01:55:53;;;;;;;8.52;1.20;;;2.50;88.00;;;;;;5032722;28;20087;-49
2021/04/08 01:58:21;;;;;;;6.45;1.15;;;2.50;88.10;;;;;;5030357;28;20060;-47
2021/04/08 02:00:48;;;;;;;7.93;1.48;;;2.50;88.00;;;;;;5031928;28;20045;-47
2021/04/08 02:03:17;;;;;;;9.30;1.52;;;2.50;87.60;;;;;;5028239;28;20042;-48
2021/04/08 02:05:43;;;;;;;9.43;1.10;;;2.50;87.80;;;;;;5024253;28;20072;-47
2021/04/08 02:08:11;;;;;;;10.15;1.40;;;2.50;87.80;;;;;;5030244;28;20045;-50
2021/04/08 02:10:39;;;;;;;8.45;1.02;;;2.50;87.70;;;;;;5025559;28;20091;-48
2021/04/08 02:13:08;;;;;;;6.82;1.17;;;2.50;87.80;;;;;;5031996;28;20091;-47
2021/04/08 02:15:35;;;;;;;6.20;1.25;;;2.50;87.80;;;;;;5029773;28;20076;-47
2021/04/08 02:18:03;;;;;;;5.07;1.20;;;2.50;87.80;;;;;;5007932;28;20072;-47
2021/04/08 02:20:32;;;;;;;8.80;1.13;;;2.50;88.00;;;;;;5028173;28;20058;-48
2021/04/08 02:23:02;;;;;;;5.28;1.20;;;2.50;88.60;;;;;;5030997;28;20084;-47
2021/04/08 02:25:30;;;;;;;5.60;1.13;;;2.50;88.00;;;;;;5029059;28;20034;-46
2021/04/08 02:27:59;;;;;;;9.82;1.25;;;2.50;88.20;;;;;;5026308;28;20128;-47
2021/04/08 02:30:25;;;;;;;5.75;0.98;;;2.50;88.20;;;;;;5031603;28;20045;-47
2021/04/08 02:32:52;;;;;;;7.30;1.30;;;2.50;88.20;;;;;;5027677;28;20514;-50
2021/04/08 02:35:18;;;;;;;6.35;1.27;;;2.50;88.10;;;;;;5022691;28;20048;-47
2021/04/08 02:37:47;;;;;;;7.93;1.20;;;2.40;88.10;;;;;;5027343;28;20069;-51
2021/04/08 02:40:18;;;;;;;6.47;0.93;;;2.40;88.20;;;;;;5017437;28;20446;-47
2021/04/08 02:42:44;;;;;;;5.93;1.13;;;2.40;88.30;;;;;;5026586;28;20491;-47
2021/04/08 02:45:12;;;;;;;7.97;1.17;;;2.30;88.40;;;;;;5024286;28;20033;-47
2021/04/08 02:47:38;;;;;;;6.78;1.17;;;2.30;88.50;;;;;;5027601;28;20133;-51
2021/04/08 02:50:08;;;;;;;7.00;1.52;;;2.30;88.70;;;;;;5029442;28;20518;-47
2021/04/08 02:52:45;;;;;;;6.55;1.05;;;2.30;88.70;;;;;;5022219;28;20383;-48
2021/04/08 02:55:19;;;;;;;6.15;1.23;;;2.30;88.70;;;;;;5026730;28;20040;-47
2021/04/08 02:58:04;;;;;;;7.13;1.20;;;2.30;88.60;;;;;;5024021;28;20049;-49
2021/04/08 03:00:36;;;;;;;9.77;1.30;;;2.30;88.70;;;;;;5031419;28;20041;-46
2021/04/08 03:03:07;;;;;;;8.45;1.30;;;2.30;88.90;;;;;;5025020;28;20033;-46
2021/04/08 03:05:39;;;;;;;11.38;1.52;;;2.20;89.10;;;;;;5030208;28;20047;-49
2021/04/08 03:08:08;;;;;;;4.88;1.25;;;2.20;89.40;;;;;;5011475;28;20124;-50
2021/04/08 03:10:37;;;;;;;2.65;0.77;;;2.10;89.30;;;;;;5027436;28;20053;-49
2021/04/08 03:13:04;;;;;;;13.10;1.58;;;2.20;89.40;;;;;;5017995;28;20041;-47
2021/04/08 03:15:39;;;;;;;10.77;1.80;;;2.10;89.60;;;;;;5027049;28;20056;-48
2021/04/08 03:18:10;;;;;;;3.72;1.40;;;2.10;89.70;;;;;;5030849;28;20043;-46
2021/04/08 03:20:39;;;;;;;9.98;1.55;;;2.10;89.80;;;;;;5028589;28;20512;-50
2021/04/08 03:23:08;;;;;;;7.22;1.42;;;2.10;89.80;;;;;;5031508;28;20041;-47
2021/04/08 03:25:34;;;;;;;9.02;1.85;;;2.10;89.70;;;;;;5030250;28;20037;-50
2021/04/08 03:28:01;;;;;;;7.65;1.20;;;2.00;89.90;;;;;;5030441;28;20041;-47
2021/04/08 03:30:27;;;;;;;9.98;1.40;;;2.00;90.10;;;;;;5030702;28;20033;-49
2021/04/08 03:32:56;;;;;;;7.35;1.50;;;2.00;90.20;;;;;;5030578;28;20061;-49
2021/04/08 03:35:23;;;;;;;11.57;1.77;;;2.00;90.10;;;;;;5030227;28;20029;-50
2021/04/08 03:37:49;;;;;;;11.52;1.40;;;2.00;90.20;;;;;;5018099;28;20199;-48
2021/04/08 03:40:17;;;;;;;8.18;1.70;;;2.00;90.30;;;;;;5024493;28;20039;-48
2021/04/08 03:42:43;;;;;;;9.70;2.28;;;2.00;90.40;;;;;;5028638;28;20075;-48
2021/04/08 03:45:11;;;;;;;8.93;1.45;;;2.00;90.40;;;;;;5030151;28;20497;-49
2021/04/08 03:47:43;;;;;;;7.93;1.33;;;2.00;90.40;;;;;;5030304;28;20041;-49
2021/04/08 03:50:11;;;;;;;8.68;1.85;;;2.10;90.40;;;;;;5025481;28;20041;-49
2021/04/08 03:52:38;;;;;;;9.50;1.55;;;2.10;90.40;;;;;;5018325;28;20137;-48
2021/04/08 03:55:05;;;;;;;12.10;1.75;;;2.10;90.50;;;;;;5020923;28;20314;-49
2021/04/08 03:57:34;;;;;;;9.60;1.63;;;2.10;90.50;;;;;;5027614;28;20050;-48
2021/04/08 04:00:04;;;;;;;6.65;1.40;;;2.10;90.50;;;;;;5028513;28;20136;-47
2021/04/08 04:02:32;;;;;;;8.38;1.40;;;2.10;90.50;;;;;;5030221;28;20053;-46
2021/04/08 04:05:00;;;;;;;5.78;1.50;;;2.20;90.40;;;;;;5030903;28;20041;-46
2021/04/08 04:07:25;;;;;;;11.35;1.48;;;2.20;90.60;;;;;;5020892;28;20041;-47
2021/04/08 04:09:52;;;;;;;5.80;1.25;;;2.20;90.40;;;;;;5024867;28;20080;-47
2021/04/08 04:12:17;;;;;;;4.25;1.17;;;2.20;90.60;;;;;;5030550;28;20084;-47
2021/04/08 04:14:45;;;;;;;6.13;1.45;;;2.20;90.50;;;;;;5030040;28;20053;-48
2021/04/08 04:17:28;;;;;;;9.77;2.13;;;2.20;90.60;;;;;;5030105;28;20045;-49
2021/04/08 04:19:55;;;;;;;8.55;1.67;;;2.20;90.40;;;;;;5023847;28;20029;-51
2021/04/08 04:22:21;;;;;;;8.25;1.33;;;2.30;90.50;;;;;;5027595;28;20033;-47
2021/04/08 04:24:47;;;;;;;11.32;1.70;;;2.30;90.50;;;;;;5036734;28;20091;-49
2021/04/08 04:27:13;;;;;;;4.85;1.60;;;2.30;90.50;;;;;;5034896;28;20056;-47
2021/04/08 04:29:39;;;;;;;5.15;1.30;;;2.30;90.40;;;;;;5035860;28;20068;-49
2021/04/08 04:32:08;;;;;;;7.28;1.30;;;2.40;90.30;;;;;;5030463;28;20075;-49
2021/04/08 04:34:35;;;;;;;8.23;1.40;;;2.40;90.30;;;;;;5017269;28;20405;-47
2021/04/08 04:37:02;;;;;;;4.63;1.17;;;2.40;90.20;;;;;;5035875;28;20047;-49
2021/04/08 04:39:28;;;;;;;8.98;1.27;;;2.40;90.20;;;;;;5036941;28;20061;-50
2021/04/08 04:41:53;;;;;;;8.55;1.23;;;2.50;90.20;;;;;;5026557;28;20112;-48
2021/04/08 04:44:19;;;;;;;5.63;0.93;;;2.50;90.10;;;;;;5012474;28;20388;-49
2021/04/08 04:46:45;;;;;;;5.65;1.20;;;2.50;90.00;;;;;;5034374;28;20045;-50
2021/04/08 04:49:10;;;;;;;6.50;1.20;;;2.50;90.00;;;;;;5036726;28;20064;-48
2021/04/08 04:51:36;;;;;;;8.57;1.65;;;2.50;89.80;;;;;;5033783;28;20038;-48
2021/04/08 04:54:02;;;;;;;7.18;1.58;;;2.60;89.60;;;;;;5024988;28;20095;-50
2021/04/08 04:56:28;;;;;;;7.97;1.38;;;2.60;89.40;;;;;;5034053;28;20112;-50
2021/04/08 04:58:54;;;;;;;3.05;1.10;;;2.60;89.30;;;;;;5023875;28;20117;-50
2021/04/08 05:01:19;;;;;;;4.88;1.23;;;2.60;89.30;;;;;;5029258;28;20042;-48
2021/04/08 05:03:45;;;;;;;9.57;1.25;;;2.60;89.20;;;;;;5036983;28;20049;-50
2021/04/08 05:06:10;;;;;;;3.70;1.20;;;2.60;89.20;;;;;;5035269;28;20409;-49
2021/04/08 05:08:36;;;;;;;4.55;1.40;;;2.60;89.10;;;;;;5035198;28;20125;-51
2021/04/08 05:11:02;;;;;;;4.93;1.25;;;2.60;89.30;;;;;;5035933;28;20132;-49
2021/04/08 05:13:28;;;;;;;6.63;1.10;;;2.60;89.20;;;;;;5036063;28;20041;-50
2021/04/08 05:15:53;;;;;;;5.60;1.20;;;2.60;89.20;;;;;;5022884;28;20109;-51
2021/04/08 05:18:19;;;;;;;8.40;1.55;;;2.60;89.20;;;;;;5031244;28;20112;-48
2021/04/08 05:20:44;;;;;;;6.00;1.30;;;2.70;89.10;;;;;;5025978;28;20040;-49
2021/04/08 05:23:10;;;;;;;3.85;1.30;;;2.70;89.10;;;;;;5034510;28;20042;-48
2021/04/08 05:25:36;;;;;;;6.55;1.00;;;2.70;89.10;;;;;;5015730;28;20069;-48
2021/04/08 05:28:02;;;;;;;7.97;1.40;;;2.70;89.10;;;;;;5030885;28;20069;-49
2021/04/08 05:30:28;;;;;;;9.82;1.48;;;2.70;89.00;;;;;;5027276;28;20037;-48
2021/04/08 05:32:55;;;;;;;4.38;1.23;;;2.80;89.00;;;;;;5021241;28;20561;-49
2021/04/08 05:35:21;;;;;;;6.38;1.17;;;2.80;89.10;;;;;;5033153;28;20030;-50
2021/04/08 05:37:47;;;;;;;5.15;1.25;;;2.80;89.00;;;;;;5022851;28;20088;-48
2021/04/08 05:40:14;;;;;;;4.50;1.15;;;2.90;89.10;;;;;;5026435;28;20128;-48
2021/04/08 05:42:43;;;;;;;6.35;1.20;;;2.80;89.20;;;;;;5023856;28;20137;-48
2021/04/08 05:45:11;;;;;;;6.50;1.20;;;2.90;89.30;;;;;;5030638;28;20073;-49
2021/04/08 05:47:36;;;;;;;6.53;1.40;;;2.90;89.50;;;;;;5027158;28;20045;-48
2021/04/08 05:50:02;;;;;;;5.22;1.20;;;2.90;89.60;;;;;;5021534;28;20044;-50
2021/04/08 05:52:29;;;;;;;5.22;1.20;;;2.90;89.70;;;;;;5031843;28;20040;-50
2021/04/08 05:54:56;;;;;;;7.15;1.60;;;3.00;89.70;;;;;;5023955;28;20506;-47
2021/04/08 05:57:21;;;;;;;7.55;1.50;;;3.00;89.70;;;;;;5028383;28;20052;-48
2021/04/08 05:59:47;;;;;;;6.13;1.73;;;3.00;89.70;;;;;;5025578;28;20560;-50
2021/04/08 06:02:12;;;;;;;7.13;1.63;;;3.00;89.40;;;;;;5023309;28;20316;-48
2021/04/08 06:04:38;;;;;;;4.45;1.67;;;3.10;89.70;;;;;;5017710;28;20049;-51
2021/04/08 06:07:04;;;;;;;8.27;1.70;;;3.10;89.40;;;;;;5022576;28;20044;-47
2021/04/08 06:09:31;;;;;;;7.90;1.50;;;3.10;89.50;;;;;;5022684;28;20037;-52
2021/04/08 06:11:57;;;;;;;9.05;1.70;;;3.20;89.40;;;;;;5017571;28;20107;-50
2021/04/08 06:14:24;;;;;;;6.40;1.50;;;3.20;89.50;;;;;;5042180;28;20140;-49
2021/04/08 06:16:50;;;;;;;6.90;1.42;;;3.10;89.60;;;;;;5018318;28;20050;-49
2021/04/08 06:19:17;;;;;;;6.05;1.60;;;3.20;89.20;;;;;;5019822;28;20050;-47
2021/04/08 06:21:42;;;;;;;6.10;1.45;;;3.20;88.40;;;;;;5040215;28;20045;-49
2021/04/08 06:24:09;;;;;;;6.43;1.33;;;3.30;88.70;;;;;;5024341;28;20049;-51
2021/04/08 06:26:36;;;;;;;7.85;1.85;;;3.30;88.70;;;;;;5022920;28;20091;-48
2021/04/08 06:29:03;;;;;;;8.00;1.83;;;3.30;89.20;;;;;;5022757;28;20046;-48
2021/04/08 06:31:34;;;;;;;4.20;1.67;;;3.30;89.40;;;;;;5020422;28;20407;-48
2021/04/08 06:34:00;;;;;;;9.30;1.92;;;3.30;89.30;;;;;;5032987;28;20033;-49
2021/04/08 06:36:27;;;;;;;8.48;1.70;;;3.30;89.50;;;;;;5029098;28;20429;-51
2021/04/08 06:38:53;;;;;;;6.63;1.60;;;3.40;89.50;;;;;;5024002;28;20041;-49
2021/04/08 06:41:19;;;;;;;7.43;1.90;;;3.40;89.50;;;;;;5016128;28;20052;-51
2021/04/08 06:43:46;;;;;;;9.88;1.65;;;3.50;89.50;;;;;;5027810;28;20132;-51
2021/04/08 06:46:24;;;;;;;4.20;1.58;;;3.50;89.70;;;;;;5015881;28;20223;-50
2021/04/08 06:49:04;;;;;;;4.63;1.70;;;3.50;89.80;;;;;;5036924;28;20041;-48
2021/04/08 06:51:32;;;;;;;10.18;1.90;;;3.50;89.50;;;;;;5029060;28;20046;-49
2021/04/08 06:54:02;;;;;;;6.60;1.75;;;3.60;89.50;;;;;;5038851;28;20040;-51
2021/04/08 06:56:29;;;;;;;9.50;2.00;;;3.60;89.60;;;;;;5031109;28;20115;-51
2021/04/08 06:58:56;;;;;;;7.25;1.88;;;3.60;90.00;;;;;;5031947;28;20041;-51
2021/04/08 07:01:25;;;;;;;8.63;2.25;;;3.70;90.00;;;;;;5029703;28;20042;-48
2021/04/08 07:03:53;;;;;;;12.85;1.95;;;3.70;89.70;;;;;;5018042;28;20049;-50
2021/04/08 07:06:19;;;;;;;9.23;1.70;;;3.70;89.50;;;;;;5022778;28;20088;-51
2021/04/08 07:08:45;;;;;;;8.10;1.95;;;3.70;89.50;;;;;;5022019;28;20448;-52
2021/04/08 07:11:12;;;;;;;7.35;1.83;;;3.70;89.70;;;;;;5037621;28;20079;-52
2021/04/08 07:13:39;;;;;;;10.40;2.03;;;3.70;89.60;;;;;;5036250;28;20033;-50
2021/04/08 07:16:09;;;;;;;12.75;2.00;;;3.80;89.50;;;;;;5028975;28;20638;-48
2021/04/08 07:18:35;;;;;;;6.32;1.70;;;3.80;89.10;;;;;;5041741;28;20096;-50
2021/04/08 07:21:00;;;;;;;9.20;2.10;;;3.80;89.00;;;;;;5033426;28;20033;-50
2021/04/08 07:23:26;;;;;;;6.15;1.60;;;3.80;88.90;;;;;;5033426;28;20042;-50
2021/04/08 07:26:01;;;;;;;7.20;1.77;;;3.80;88.60;;;;;;5029942;28;20041;-49
2021/04/08 07:28:42;;;;;;;5.55;1.70;;;3.80;88.70;;;;;;5030195;28;20045;-50
2021/04/08 07:31:37;;;;;;;7.28;1.88;;;3.80;88.90;;;;;;5030271;28;20067;-48
2021/04/08 07:34:03;;;;;;;6.95;1.83;;;3.80;88.90;;;;;;5033469;28;20101;-50
2021/04/08 07:36:34;;;;;;;7.82;2.17;;;3.80;88.90;;;;;;5025265;28;20033;-48
2021/04/08 07:39:16;;;;;;;10.38;2.13;;;3.80;88.70;;;;;;5020181;28;20029;-48
2021/04/08 07:41:42;;;;;;;7.43;1.98;;;3.90;88.80;;;;;;5018930;28;20042;-48
2021/04/08 07:44:10;;;;;;;9.38;2.08;;;3.90;88.70;;;;;;5024121;28;20041;-48
2021/04/08 07:46:43;;;;;;;9.35;2.25;;;3.90;88.80;;;;;;5015125;28;20154;-48
2021/04/08 07:49:31;;;;;;;7.18;2.10;;;4.00;88.90;;;;;;5026877;28;20064;-50
2021/04/08 07:51:58;;;;;;;9.77;1.90;;;4.10;89.20;;;;;;5032556;28;20041;-48
2021/04/08 07:54:24;;;;;;;8.43;2.05;;;4.20;89.30;;;;;;5028981;28;20462;-48
2021/04/08 07:56:50;;;;;;;9.68;2.50;;;4.30;89.30;;;;;;5037285;28;20087;-47
2021/04/08 07:59:21;;;;;;;9.60;2.03;;;4.30;88.80;;;;;;5029682;28;20045;-53
2021/04/08 08:01:58;;;;;;;10.82;2.40;;;4.40;88.00;;;;;;5008831;28;20049;-47
2021/04/08 08:04:25;;;;;;;8.70;2.28;;;4.50;87.50;;;;;;5018243;28;20116;-48
2021/04/08 08:06:52;;;;;;;7.05;2.10;;;4.50;87.50;;;;;;5019946;28;20045;-48
2021/04/08 08:09:20;;;;;;;9.70;2.30;;;4.60;87.50;;;;;;5021255;28;20453;-48
2021/04/08 08:11:46;;;;;;;8.35;2.08;;;4.70;86.80;;;;;;4999523;28;20070;-48
2021/04/08 08:14:12;;;;;;;10.05;2.35;;;4.90;86.80;;;;;;5021156;28;20041;-49
2021/04/08 08:16:37;;;;;;;11.43;2.25;;;5.00;86.60;;;;;;5024193;28;20037;-48
2021/04/08 08:19:18;;;;;;;6.25;2.10;;;5.10;84.50;;;;;;5023671;28;20056;-49
2021/04/08 08:21:43;;;;;;;6.53;2.03;;;5.20;84.60;;;;;;5019057;28;20124;-48
2021/04/08 08:24:14;;;;;;;7.38;2.00;;;5.20;84.50;;;;;;5016986;28;20125;-50
2021/04/08 08:26:43;;;;;;;12.20;2.40;;;5.30;84.60;;;;;;5012875;28;20061;-49
2021/04/08 08:29:19;;;;;;;9.88;2.00;;;5.30;84.50;;;;;;5019331;28;20038;-49
2021/04/08 08:31:53;;;;;;;7.60;2.25;;;5.40;83.90;;;;;;5015400;28;20037;-52
2021/04/08 08:34:23;;;;;;;7.50;2.03;;;5.40;83.40;;;;;;4994332;28;20498;-52
2021/04/08 08:36:56;;;;;;;7.93;2.00;;;5.40;82.00;;;;;;5033688;28;20081;-51
2021/04/08 08:39:45;;;;;;;9.10;2.42;;;5.40;82.40;;;;;;5016033;28;20042;-55
2021/04/08 08:42:20;;;;;;;5.03;1.73;;;5.50;82.40;;;;;;5015814;28;20044;-52
2021/04/08 08:44:46;;;;;;;8.40;2.13;;;5.50;82.30;;;;;;5003349;28;20300;-51
2021/04/08 08:47:22;;;;;;;6.70;1.90;;;5.50;80.90;;;;;;5022172;28;20512;-52
2021/04/08 08:50:10;;;;;;;6.00;2.15;;;5.60;81.50;;;;;;5037098;28;20498;-52
2021/04/08 08:52:49;;;;;;;6.40;2.15;;;5.60;81.30;;;;;;5026066;28;20046;-51
2021/04/08 08:55:17;;;;;;;12.80;2.70;;;5.70;79.30;;;;;;5027513;28;20042;-48
2021/04/08 08:57:46;;;;;;;6.97;2.10;;;5.70;80.90;;;;;;5015112;28;20050;-48
2021/04/08 09:00:12;;;;;;;9.80;2.75;;;5.80;79.30;;;;;;5022325;28;20038;-48
2021/04/08 09:02:40;;;;;;;8.25;3.00;;;5.90;78.60;;;;;;5021877;28;20402;-47
2021/04/08 09:05:24;;;;;;;9.07;2.47;;;5.90;77.80;;;;;;5024847;28;20481;-48
2021/04/08 09:08:11;;;;;;;11.20;2.65;;;6.00;75.80;;;;;;5017549;28;21482;-50
2021/04/08 09:10:41;;;;;;;11.10;2.70;;;6.00;77.20;;;;;;5020921;28;20628;-47
2021/04/08 09:13:07;;;;;;;7.40;2.63;;;6.10;78.30;;;;;;5019468;28;20060;-49
2021/04/08 09:15:35;;;;;;;10.50;2.88;;;6.20;77.20;;;;;;5021912;28;20057;-47
2021/04/08 09:18:05;;;;;;;7.05;2.90;;;6.30;76.00;;;;;;5020754;28;20045;-48
2021/04/08 09:20:33;;;;;;;8.65;2.55;;;6.30;76.70;;;;;;5018945;28;20180;-47
2021/04/08 09:23:06;;;;;;;8.07;2.35;;;6.20;75.70;;;;;;5023384;28;20120;-48
2021/04/08 09:25:36;;;;;;;10.23;2.88;;;6.20;74.30;;;;;;5023122;28;20068;-48
2021/04/08 09:28:13;;;;;;;7.82;2.80;;;6.10;75.00;;;;;;5024327;28;20040;-48
2021/04/08 09:31:06;;;;;;;6.93;2.70;;;6.10;73.40;;;;;;5025918;28;20092;-50
2021/04/08 09:33:43;;;;;;;8.77;2.78;;;6.10;75.10;;;;;;5033301;28;20567;-48
2021/04/08 09:36:18;;;;;;;9.48;2.63;;;6.20;75.80;;;;;;5027644;28;20037;-48
2021/04/08 09:38:44;;;;;;;9.70;2.80;;;6.20;74.00;;;;;;5018439;28;20046;-49
2021/04/08 09:41:10;;;;;;;6.45;2.45;;;6.30;75.30;;;;;;5021734;28;20045;-49
2021/04/08 09:43:36;;;;;;;10.25;3.20;;;6.40;73.70;;;;;;5025623;28;20053;-48
2021/04/08 09:46:06;;;;;;;8.05;2.88;;;6.40;74.30;;;;;;5017551;28;20048;-48
2021/04/08 09:48:47;;;;;;;6.00;2.80;;;6.40;71.90;;;;;;5024277;28;20041;-48
2021/04/08 09:51:26;;;;;;;6.53;2.97;;;6.50;71.00;;;;;;5023702;28;20498;-49
2021/04/08 09:53:54;;;;;;;7.97;2.83;;;6.60;71.40;;;;;;5018196;28;20056;-49
2021/04/08 09:56:39;;;;;;;9.00;2.92;;;6.60;70.40;;;;;;5023232;28;20046;-51
2021/04/08 09:59:05;;;;;;;7.28;2.92;;;6.70;70.00;;;;;;5017183;28;20068;-51
2021/04/08 10:01:31;;;;;;;6.82;2.95;;;6.90;71.50;;;;;;5016828;28;20053;-48
2021/04/08 10:04:14;;;;;;;7.80;2.83;;;7.10;68.40;;;;;;5022828;28;20041;-48
2021/04/08 10:06:40;;;;;;;11.23;3.15;;;7.40;68.00;;;;;;5021254;28;20029;-48
2021/04/08 10:09:10;;;;;;;8.85;2.80;;;7.60;62.50;;;;;;5015711;28;20092;-48
2021/04/08 10:11:39;;;;;;;6.30;3.03;;;7.90;64.30;;;;;;5025201;28;20076;-48
2021/04/08 10:14:31;;;;;;;7.28;2.83;;;8.10;62.80;;;;;;5027726;28;20125;-49
2021/04/08 10:17:10;;;;;;;5.80;2.38;;;8.30;61.90;;;;;;5027472;28;20139;-47
2021/04/08 10:19:56;;;;;;;4.18;2.13;;;8.20;54.80;;;;;;5023729;28;20057;-49
2021/04/08 10:22:22;;;;;;;4.88;2.65;;;8.10;55.80;;;;;;5046158;28;20041;-52
2021/04/08 10:25:09;;;;;;;6.25;2.97;;;7.80;54.00;;;;;;5022969;28;20045;-51
2021/04/08 10:27:55;;;;;;;6.68;3.00;;;7.60;54.60;;;;;;5028026;28;20037;-47
2021/04/08 10:30:21;;;;;;;6.68;2.83;;;7.50;55.50;;;;;;5030876;28;20042;-48
2021/04/08 10:32:47;;;;;;;7.82;3.20;;;7.40;55.90;;;;;;5029610;28;20049;-51
2021/04/08 10:35:30;;;;;;;8.43;3.00;;;7.30;56.20;;;;;;5024678;28;20472;-52
2021/04/08 10:38:00;;;;;;;4.80;2.63;;;7.30;57.60;;;;;;5031297;28;20042;-51
2021/04/08 10:40:26;;;;;;;4.10;2.58;;;7.30;59.30;;;;;;5015193;28;20057;-49
2021/04/08 10:42:52;;;;;;;8.65;3.17;;;7.30;58.50;;;;;;5016019;28;20065;-50
2021/04/08 10:45:19;;;;;;;5.55;2.90;;;7.30;57.00;;;;;;5019733;28;20040;-48
2021/04/08 10:47:45;;;;;;;5.43;2.78;;;7.30;57.60;;;;;;5020655;28;20172;-48
2021/04/08 10:50:11;;;;;;;5.57;3.20;;;7.40;58.80;;;;;;5026257;28;20065;-48
2021/04/08 10:52:38;;;;;;;7.80;3.70;;;7.50;57.20;;;;;;5021986;28;20052;-51
2021/04/08 10:55:05;;;;;;;6.32;3.78;;;7.50;56.70;;;;;;5017072;28;20034;-50
2021/04/08 10:57:31;;;;;;;8.60;3.70;;;7.50;53.80;;;;;;5021751;28;20112;-50
2021/04/08 10:59:58;;;;;;;6.70;4.20;;;7.50;55.10;;;;;;5013561;28;20064;-50
2021/04/08 11:02:30;;;;;;;7.03;4.45;;;7.50;56.00;;;;;;5013083;28;20598;-52
2021/04/08 11:05:01;;;;;;;7.88;4.47;;;7.60;56.50;;;;;;5032140;28;20045;-53
2021/04/08 11:07:27;;;;;;;9.70;4.18;;;7.60;56.70;;;;;;5017441;28;20046;-52
2021/04/08 11:09:53;;;;;;;7.85;4.65;;;7.50;55.30;;;;;;5031813;28;20044;-51
2021/04/08 11:12:26;;;;;;;8.52;3.95;;;7.60;56.80;;;;;;5031283;28;20064;-51
2021/04/08 11:14:55;;;;;;;6.97;4.47;;;7.60;55.30;;;;;;5031546;28;20037;-52
2021/04/08 11:17:23;;;;;;;8.77;4.38;;;7.60;54.30;;;;;;5032264;28;20490;-48
2021/04/08 11:19:50;;;;;;;7.57;4.50;;;7.60;55.60;;;;;;5028346;28;20103;-48
2021/04/08 11:22:19;;;;;;;10.98;4.68;;;7.60;56.40;;;;;;5021938;28;20300;-49
2021/04/08 11:24:48;;;;;;;6.78;4.75;;;7.50;55.70;;;;;;5030497;28;20042;-48
2021/04/08 11:27:26;;;;;;;11.40;4.95;;;7.40;56.80;;;;;;5031832;28;20041;-51
2021/04/08 11:29:52;;;;;;;7.05;4.57;;;7.40;56.80;;;;;;5031970;28;20057;-49
2021/04/08 11:32:18;;;;;;;11.82;4.82;;;7.40;57.60;;;;;;5030503;28;20049;-48
2021/04/08 11:34:54;;;;;;;10.60;5.75;;;7.40;58.00;;;;;;5025150;28;20396;-48
2021/04/08 11:37:33;;;;;;;8.90;4.88;;;7.50;57.00;;;;;;5024895;28;20099;-49
2021/04/08 11:40:00;;;;;;;8.63;4.93;;;7.50;57.90;;;;;;5024589;28;20495;-48
2021/04/08 11:42:40;;;;;;;10.75;5.10;;;7.60;58.20;;;;;;5031581;28;20044;-48
2021/04/08 11:45:29;;;;;;;10.18;5.53;;;7.70;58.10;;;;;;5032086;28;20051;-49
2021/04/08 11:47:58;;;;;;;9.38;5.25;;;7.80;57.20;;;;;;5030102;28;20095;-48
2021/04/08 11:50:48;;;;;;;9.23;5.38;;;7.80;56.50;;;;;;5017622;28;20505;-48
2021/04/08 11:53:16;;;;;;;10.02;5.55;;;7.90;56.70;;;;;;5023715;28;20104;-49
2021/04/08 11:55:47;;;;;;;9.35;5.95;;;7.90;58.10;;;;;;5027495;28;20037;-50
2021/04/08 11:58:25;;;;;;;8.98;5.80;;;8.00;59.30;;;;;;5020237;28;20100;-50
2021/04/08 12:00:51;;;;;;;9.73;5.78;;;8.10;58.20;;;;;;5028397;28;20359;-48
2021/04/08 12:03:25;;;;;;;10.77;6.53;;;8.20;57.70;;;;;;5022500;28;20069;-48
2021/04/08 12:05:52;;;;;;;11.27;6.32;;;8.20;57.40;;;;;;5018557;28;20041;-49
2021/04/08 12:08:44;;;;;;;9.75;6.00;;;8.20;57.40;;;;;;5019227;28;20038;-48
2021/04/08 12:11:15;;;;;;;13.73;7.47;;;8.10;56.70;;;;;;5031552;28;20547;-48
2021/04/08 12:13:42;;;;;;;10.52;6.10;;;8.00;56.00;;;;;;5025283;28;20091;-50
2021/04/08 12:16:25;;;;;;;14.80;6.95;;;8.00;57.20;;;;;;5022841;28;20102;-51
2021/04/08 12:18:51;;;;;;;;;;;8.10;57.60;;;;;;5020210;28;20489;-49
2021/04/08 12:21:19;;;;;;;11.32;6.15;;;8.20;56.20;;;;;;5029764;28;19971;-49
2021/04/08 12:23:46;;;;;;;9.88;6.35;;;8.20;55.90;;;;;;5029602;28;20118;-49
2021/04/08 12:26:12;;;;;;;14.93;6.18;;;8.30;57.50;;;;;;5029738;28;20432;-52
2021/04/08 12:28:40;;;;;;;11.38;6.78;;;8.50;57.50;;;;;;5017952;28;20075;-50
2021/04/08 12:31:08;;;;;;;13.50;6.30;;;8.50;57.40;;;;;;5030112;28;20107;-50
2021/04/08 12:33:41;;;;;;;14.40;7.05;;;8.50;57.20;;;;;;5030744;28;20041;-50
2021/04/08 12:36:12;;;;;;;9.10;6.63;;;8.50;56.60;;;;;;5030488;28;20053;-50
2021/04/08 12:38:39;;;;;;;11.05;6.88;;;8.40;56.60;;;;;;5028106;28;20443;-51
2021/04/08 12:41:05;;;;;;;9.43;6.43;;;8.40;56.30;;;;;;5031016;28;20515;-51
2021/04/08 12:43:32;;;;;;;11.02;6.88;;;8.40;57.50;;;;;;5030482;28;20060;-49
2021/04/08 12:45:59;;;;;;;12.15;6.90;;;8.30;56.00;;;;;;5034904;28;20041;-48
2021/04/08 12:48:25;;;;;;;12.90;6.72;;;8.40;57.30;;;;;;5030994;28;20168;-48
2021/04/08 12:50:53;;;;;;;10.45;6.50;;;8.50;57.20;;;;;;5027810;28;20053;-49
2021/04/08 12:53:20;;;;;;;11.43;6.82;;;8.40;56.60;;;;;;5024654;28;20455;-50
2021/04/08 12:55:47;;;;;;;9.93;7.47;;;8.40;57.50;;;;;;5016393;28;20040;-48
2021/04/08 12:58:13;;;;;;;10.98;7.13;;;8.30;57.30;;;;;;5020182;28;20042;-49
2021/04/08 13:00:39;;;;;;;18.33;7.85;;;8.30;57.80;;;;;;5021982;28;20120;-52
2021/04/08 13:03:06;;;;;;;12.55;7.80;;;8.60;57.80;;;;;;5028894;28;20121;-49
2021/04/08 13:05:33;;;;;;;10.80;7.28;;;8.70;56.40;;;;;;5027650;28;20072;-49
2021/04/08 13:07:59;;;;;;;11.02;6.88;;;8.70;55.20;;;;;;5026585;28;20064;-51